sensor_id;sensor_type;location;lat;lon;timestamp;P1;durP1;ratioP1;P2;durP2;ratioP2
9773;SDS011;4926;42.670;23.316;2023-03-03T00:00:58;4.18;;;3.33;;
9773;SDS011;4926;42.670;23.316;2023-03-03T00:03:24;4.22;;;3.60;;
9773;SDS011;4926;42.670;23.316;2023-03-03T00:05:52;4.38;;;3.53;;
9773;SDS011;4926;42.670;23.316;2023-03-03T00:08:23;4.13;;;3.72;;
9773;SDS011;4926;42.670;23.316;2023-03-03T00:10:50;4.65;;;3.70;;
9773;SDS011;4926;42.670;23.316;2023-03-03T00:13:20;4.72;;;3.80;;
9773;SDS011;4926;42.670;23.316;2023-03-03T00:15:48;4.72;;;3.88;;
9773;SDS011;4926;42.670;23.316;2023-03-03T00:18:24;7.03;;;4.32;;
9773;SDS011;4926;42.670;23.316;2023-03-03T00:20:54;3.78;;;3.38;;
9773;SDS011;4926;42.670;23.316;2023-03-03T00:23:29;4.45;;;4.00;;
9773;SDS011;4926;42.670;23.316;2023-03-03T00:26:00;5.25;;;4.03;;
9773;SDS011;4926;42.670;23.316;2023-03-03T00:28:28;4.32;;;3.60;;
9773;SDS011;4926;42.670;23.316;2023-03-03T00:30:56;4.97;;;4.18;;
9773;SDS011;4926;42.670;23.316;2023-03-03T00:33:26;5.65;;;4.35;;
9773;SDS011;4926;42.670;23.316;2023-03-03T00:35:56;5.40;;;4.32;;
9773;SDS011;4926;42.670;23.316;2023-03-03T00:38:36;5.15;;;4.40;;
9773;SDS011;4926;42.670;23.316;2023-03-03T00:41:09;5.05;;;4.50;;
9773;SDS011;4926;42.670;23.316;2023-03-03T00:43:45;5.85;;;4.40;;
9773;SDS011;4926;42.670;23.316;2023-03-03T00:46:14;5.20;;;4.20;;
9773;SDS011;4926;42.670;23.316;2023-03-03T00:48:43;6.60;;;5.38;;
9773;SDS011;4926;42.670;23.316;2023-03-03T00:51:18;5.72;;;5.13;;
9773;SDS011;4926;42.670;23.316;2023-03-03T00:53:53;6.05;;;5.35;;
9773;SDS011;4926;42.670;23.316;2023-03-03T00:56:20;6.53;;;5.45;;
9773;SDS011;4926;42.670;23.316;2023-03-03T00:58:47;5.68;;;4.88;;
9773;SDS011;4926;42.670;23.316;2023-03-03T01:01:14;6.68;;;4.70;;
9773;SDS011;4926;42.670;23.316;2023-03-03T01:03:42;8.05;;;5.57;;
9773;SDS011;4926;42.670;23.316;2023-03-03T01:06:09;5.70;;;4.70;;
9773;SDS011;4926;42.670;23.316;2023-03-03T01:08:36;5.75;;;5.05;;
9773;SDS011;4926;42.670;23.316;2023-03-03T01:11:06;5.00;;;4.50;;
9773;SDS011;4926;42.670;23.316;2023-03-03T01:13:36;8.18;;;5.00;;
9773;SDS011;4926;42.670;23.316;2023-03-03T01:16:07;6.22;;;5.00;;
9773;SDS011;4926;42.670;23.316;2023-03-03T01:18:33;6.32;;;5.10;;
9773;SDS011;4926;42.670;23.316;2023-03-03T01:21:01;6.90;;;5.25;;
9773;SDS011;4926;42.670;23.316;2023-03-03T01:23:28;5.47;;;4.80;;
9773;SDS011;4926;42.670;23.316;2023-03-03T01:26:00;6.57;;;4.70;;
9773;SDS011;4926;42.670;23.316;2023-03-03T01:28:28;5.97;;;5.20;;
9773;SDS011;4926;42.670;23.316;2023-03-03T01:30:58;6.63;;;4.82;;
9773;SDS011;4926;42.670;23.316;2023-03-03T01:33:26;6.72;;;5.20;;
9773;SDS011;4926;42.670;23.316;2023-03-03T01:35:53;5.85;;;4.65;;
9773;SDS011;4926;42.670;23.316;2023-03-03T01:38:19;5.35;;;4.60;;
9773;SDS011;4926;42.670;23.316;2023-03-03T01:40:50;7.20;;;5.60;;
9773;SDS011;4926;42.670;23.316;2023-03-03T01:43:18;5.43;;;4.85;;
9773;SDS011;4926;42.670;23.316;2023-03-03T01:48:46;7.28;;;5.07;;
9773;SDS011;4926;42.670;23.316;2023-03-03T01:51:14;8.05;;;5.03;;
9773;SDS011;4926;42.670;23.316;2023-03-03T01:53:49;7.43;;;5.18;;
9773;SDS011;4926;42.670;23.316;2023-03-03T01:56:23;6.65;;;5.75;;
9773;SDS011;4926;42.670;23.316;2023-03-03T01:58:54;6.82;;;5.20;;
9773;SDS011;4926;42.670;23.316;2023-03-03T02:01:27;7.15;;;5.20;;
9773;SDS011;4926;42.670;23.316;2023-03-03T02:03:57;6.25;;;5.40;;
9773;SDS011;4926;42.670;23.316;2023-03-03T02:06:25;7.15;;;5.75;;
9773;SDS011;4926;42.670;23.316;2023-03-03T02:08:58;8.20;;;6.00;;
9773;SDS011;4926;42.670;23.316;2023-03-03T02:11:30;7.03;;;5.50;;
9773;SDS011;4926;42.670;23.316;2023-03-03T02:13:59;6.38;;;5.28;;
9773;SDS011;4926;42.670;23.316;2023-03-03T02:16:25;6.15;;;4.60;;
9773;SDS011;4926;42.670;23.316;2023-03-03T02:18:55;7.45;;;5.15;;
9773;SDS011;4926;42.670;23.316;2023-03-03T02:21:23;7.20;;;5.43;;
9773;SDS011;4926;42.670;23.316;2023-03-03T02:24:02;6.05;;;5.30;;
9773;SDS011;4926;42.670;23.316;2023-03-03T02:26:36;6.25;;;5.07;;
9773;SDS011;4926;42.670;23.316;2023-03-03T02:29:05;5.95;;;4.82;;
9773;SDS011;4926;42.670;23.316;2023-03-03T02:31:35;6.60;;;5.13;;
9773;SDS011;4926;42.670;23.316;2023-03-03T02:34:02;6.03;;;5.35;;
9773;SDS011;4926;42.670;23.316;2023-03-03T02:36:30;7.00;;;4.93;;
9773;SDS011;4926;42.670;23.316;2023-03-03T02:39:00;6.78;;;4.70;;
9773;SDS011;4926;42.670;23.316;2023-03-03T02:41:32;5.88;;;4.93;;
9773;SDS011;4926;42.670;23.316;2023-03-03T02:44:05;6.55;;;5.65;;
9773;SDS011;4926;42.670;23.316;2023-03-03T02:46:34;6.20;;;5.10;;
9773;SDS011;4926;42.670;23.316;2023-03-03T02:49:02;8.55;;;5.50;;
9773;SDS011;4926;42.670;23.316;2023-03-03T02:51:30;7.45;;;5.65;;
9773;SDS011;4926;42.670;23.316;2023-03-03T02:53:57;7.95;;;5.80;;
9773;SDS011;4926;42.670;23.316;2023-03-03T02:56:24;7.03;;;5.82;;
9773;SDS011;4926;42.670;23.316;2023-03-03T02:58:51;7.32;;;5.55;;
9773;SDS011;4926;42.670;23.316;2023-03-03T03:01:19;8.18;;;5.40;;
9773;SDS011;4926;42.670;23.316;2023-03-03T03:03:49;7.07;;;5.60;;
9773;SDS011;4926;42.670;23.316;2023-03-03T03:06:16;6.75;;;5.93;;
9773;SDS011;4926;42.670;23.316;2023-03-03T03:08:43;7.68;;;6.00;;
9773;SDS011;4926;42.670;23.316;2023-03-03T03:11:10;7.07;;;5.53;;
9773;SDS011;4926;42.670;23.316;2023-03-03T03:13:37;8.27;;;6.57;;
9773;SDS011;4926;42.670;23.316;2023-03-03T03:16:04;7.75;;;6.43;;
9773;SDS011;4926;42.670;23.316;2023-03-03T03:18:32;9.82;;;6.40;;
9773;SDS011;4926;42.670;23.316;2023-03-03T03:21:04;7.72;;;6.45;;
9773;SDS011;4926;42.670;23.316;2023-03-03T03:23:33;8.50;;;6.30;;
9773;SDS011;4926;42.670;23.316;2023-03-03T03:26:02;8.77;;;6.53;;
9773;SDS011;4926;42.670;23.316;2023-03-03T03:28:30;9.02;;;6.53;;
9773;SDS011;4926;42.670;23.316;2023-03-03T03:30:57;10.02;;;7.82;;
9773;SDS011;4926;42.670;23.316;2023-03-03T03:33:26;10.43;;;7.60;;
9773;SDS011;4926;42.670;23.316;2023-03-03T03:35:55;9.52;;;7.60;;
9773;SDS011;4926;42.670;23.316;2023-03-03T03:38:24;9.30;;;7.13;;
9773;SDS011;4926;42.670;23.316;2023-03-03T03:40:52;8.57;;;6.88;;
9773;SDS011;4926;42.670;23.316;2023-03-03T03:43:20;9.02;;;7.40;;
9773;SDS011;4926;42.670;23.316;2023-03-03T03:45:47;8.57;;;6.93;;
9773;SDS011;4926;42.670;23.316;2023-03-03T03:48:17;11.52;;;7.88;;
9773;SDS011;4926;42.670;23.316;2023-03-03T03:50:44;9.57;;;7.13;;
9773;SDS011;4926;42.670;23.316;2023-03-03T03:53:13;10.00;;;7.65;;
9773;SDS011;4926;42.670;23.316;2023-03-03T03:55:39;9.30;;;7.22;;
9773;SDS011;4926;42.670;23.316;2023-03-03T03:58:06;9.93;;;7.15;;
9773;SDS011;4926;42.670;23.316;2023-03-03T04:00:33;9.43;;;7.38;;
9773;SDS011;4926;42.670;23.316;2023-03-03T04:03:05;12.13;;;8.20;;
9773;SDS011;4926;42.670;23.316;2023-03-03T04:05:33;10.25;;;7.45;;
9773;SDS011;4926;42.670;23.316;2023-03-03T04:08:00;12.63;;;8.63;;
9773;SDS011;4926;42.670;23.316;2023-03-03T04:10:28;10.10;;;7.90;;
9773;SDS011;4926;42.670;23.316;2023-03-03T04:12:55;14.32;;;9.63;;
9773;SDS011;4926;42.670;23.316;2023-03-03T04:15:22;11.50;;;8.75;;
9773;SDS011;4926;42.670;23.316;2023-03-03T04:17:51;12.43;;;9.20;;
9773;SDS011;4926;42.670;23.316;2023-03-03T04:20:21;14.35;;;8.48;;
9773;SDS011;4926;42.670;23.316;2023-03-03T04:22:48;14.82;;;9.57;;
9773;SDS011;4926;42.670;23.316;2023-03-03T04:25:15;16.08;;;9.43;;
9773;SDS011;4926;42.670;23.316;2023-03-03T04:27:44;11.85;;;9.35;;
9773;SDS011;4926;42.670;23.316;2023-03-03T04:30:11;11.82;;;8.95;;
9773;SDS011;4926;42.670;23.316;2023-03-03T04:32:40;11.05;;;8.52;;
9773;SDS011;4926;42.670;23.316;2023-03-03T04:35:08;12.02;;;9.05;;
9773;SDS011;4926;42.670;23.316;2023-03-03T04:37:35;12.85;;;9.73;;
9773;SDS011;4926;42.670;23.316;2023-03-03T04:40:04;13.52;;;9.68;;
9773;SDS011;4926;42.670;23.316;2023-03-03T04:42:32;12.15;;;9.13;;
9773;SDS011;4926;42.670;23.316;2023-03-03T04:45:00;13.60;;;10.20;;
9773;SDS011;4926;42.670;23.316;2023-03-03T04:47:29;13.02;;;9.98;;
9773;SDS011;4926;42.670;23.316;2023-03-03T04:49:57;13.55;;;9.50;;
9773;SDS011;4926;42.670;23.316;2023-03-03T04:52:25;13.18;;;9.45;;
9773;SDS011;4926;42.670;23.316;2023-03-03T04:54:51;13.48;;;9.57;;
9773;SDS011;4926;42.670;23.316;2023-03-03T04:57:18;15.32;;;10.70;;
9773;SDS011;4926;42.670;23.316;2023-03-03T04:59:45;13.95;;;10.73;;
9773;SDS011;4926;42.670;23.316;2023-03-03T05:02:13;14.98;;;10.85;;
9773;SDS011;4926;42.670;23.316;2023-03-03T05:04:40;13.52;;;10.05;;
9773;SDS011;4926;42.670;23.316;2023-03-03T05:07:06;15.15;;;10.35;;
9773;SDS011;4926;42.670;23.316;2023-03-03T05:09:34;14.55;;;10.25;;
9773;SDS011;4926;42.670;23.316;2023-03-03T05:12:01;14.45;;;10.35;;
9773;SDS011;4926;42.670;23.316;2023-03-03T05:14:27;15.88;;;10.82;;
9773;SDS011;4926;42.670;23.316;2023-03-03T05:16:55;17.40;;;10.90;;
9773;SDS011;4926;42.670;23.316;2023-03-03T05:19:23;14.27;;;10.40;;
9773;SDS011;4926;42.670;23.316;2023-03-03T05:21:53;16.40;;;10.88;;
9773;SDS011;4926;42.670;23.316;2023-03-03T05:24:19;15.15;;;11.15;;
9773;SDS011;4926;42.670;23.316;2023-03-03T05:26:55;15.75;;;11.38;;
9773;SDS011;4926;42.670;23.316;2023-03-03T05:29:22;16.20;;;11.55;;
9773;SDS011;4926;42.670;23.316;2023-03-03T05:31:49;16.73;;;11.00;;
9773;SDS011;4926;42.670;23.316;2023-03-03T05:34:15;17.25;;;11.63;;
9773;SDS011;4926;42.670;23.316;2023-03-03T05:36:48;17.13;;;11.32;;
9773;SDS011;4926;42.670;23.316;2023-03-03T05:39:16;14.27;;;10.20;;
9773;SDS011;4926;42.670;23.316;2023-03-03T05:41:43;15.13;;;10.68;;
9773;SDS011;4926;42.670;23.316;2023-03-03T05:44:09;14.13;;;9.63;;
9773;SDS011;4926;42.670;23.316;2023-03-03T05:46:36;16.02;;;10.35;;
9773;SDS011;4926;42.670;23.316;2023-03-03T05:49:03;13.75;;;10.00;;
9773;SDS011;4926;42.670;23.316;2023-03-03T05:51:32;16.10;;;11.43;;
9773;SDS011;4926;42.670;23.316;2023-03-03T05:54:00;16.08;;;10.27;;
9773;SDS011;4926;42.670;23.316;2023-03-03T05:56:27;18.48;;;11.45;;
9773;SDS011;4926;42.670;23.316;2023-03-03T05:58:56;18.23;;;11.90;;
9773;SDS011;4926;42.670;23.316;2023-03-03T06:01:23;15.90;;;11.75;;
9773;SDS011;4926;42.670;23.316;2023-03-03T06:03:51;19.80;;;12.25;;
9773;SDS011;4926;42.670;23.316;2023-03-03T06:06:18;17.70;;;12.07;;
9773;SDS011;4926;42.670;23.316;2023-03-03T06:08:45;19.20;;;13.18;;
9773;SDS011;4926;42.670;23.316;2023-03-03T06:11:13;24.77;;;12.88;;
9773;SDS011;4926;42.670;23.316;2023-03-03T06:13:40;18.05;;;12.75;;
9773;SDS011;4926;42.670;23.316;2023-03-03T06:16:07;19.23;;;13.13;;
9773;SDS011;4926;42.670;23.316;2023-03-03T06:18:34;19.83;;;12.20;;
9773;SDS011;4926;42.670;23.316;2023-03-03T06:21:02;18.55;;;12.77;;
9773;SDS011;4926;42.670;23.316;2023-03-03T06:23:31;17.20;;;11.73;;
9773;SDS011;4926;42.670;23.316;2023-03-03T06:26:00;19.95;;;13.68;;
9773;SDS011;4926;42.670;23.316;2023-03-03T06:28:29;19.42;;;12.05;;
9773;SDS011;4926;42.670;23.316;2023-03-03T06:30:56;21.55;;;12.80;;
9773;SDS011;4926;42.670;23.316;2023-03-03T06:33:23;18.73;;;12.80;;
9773;SDS011;4926;42.670;23.316;2023-03-03T06:35:50;16.35;;;11.65;;
9773;SDS011;4926;42.670;23.316;2023-03-03T06:38:18;16.65;;;12.10;;
9773;SDS011;4926;42.670;23.316;2023-03-03T06:40:45;16.23;;;11.35;;
9773;SDS011;4926;42.670;23.316;2023-03-03T06:43:12;15.68;;;12.02;;
9773;SDS011;4926;42.670;23.316;2023-03-03T06:45:40;20.30;;;13.23;;
9773;SDS011;4926;42.670;23.316;2023-03-03T06:48:08;16.23;;;11.70;;
9773;SDS011;4926;42.670;23.316;2023-03-03T06:50:34;18.02;;;13.15;;
9773;SDS011;4926;42.670;23.316;2023-03-03T06:53:05;16.73;;;11.85;;
9773;SDS011;4926;42.670;23.316;2023-03-03T06:55:36;16.73;;;12.20;;
9773;SDS011;4926;42.670;23.316;2023-03-03T06:58:04;15.93;;;11.77;;
9773;SDS011;4926;42.670;23.316;2023-03-03T07:00:35;19.25;;;12.45;;
9773;SDS011;4926;42.670;23.316;2023-03-03T07:03:07;19.42;;;12.20;;
9773;SDS011;4926;42.670;23.316;2023-03-03T07:05:41;17.65;;;12.80;;
9773;SDS011;4926;42.670;23.316;2023-03-03T07:08:17;15.93;;;11.23;;
9773;SDS011;4926;42.670;23.316;2023-03-03T07:10:45;17.35;;;11.70;;
9773;SDS011;4926;42.670;23.316;2023-03-03T07:13:16;14.50;;;10.63;;
9773;SDS011;4926;42.670;23.316;2023-03-03T07:15:45;16.00;;;11.93;;
9773;SDS011;4926;42.670;23.316;2023-03-03T07:18:22;15.05;;;11.02;;
9773;SDS011;4926;42.670;23.316;2023-03-03T07:20:56;14.52;;;10.48;;
9773;SDS011;4926;42.670;23.316;2023-03-03T07:23:24;15.35;;;10.18;;
9773;SDS011;4926;42.670;23.316;2023-03-03T07:25:53;12.48;;;9.27;;
9773;SDS011;4926;42.670;23.316;2023-03-03T07:28:23;16.58;;;11.55;;
9773;SDS011;4926;42.670;23.316;2023-03-03T07:30:51;16.40;;;11.07;;
9773;SDS011;4926;42.670;23.316;2023-03-03T07:33:22;13.15;;;10.32;;
9773;SDS011;4926;42.670;23.316;2023-03-03T07:35:54;14.85;;;10.52;;
9773;SDS011;4926;42.670;23.316;2023-03-03T07:38:33;12.35;;;9.93;;
9773;SDS011;4926;42.670;23.316;2023-03-03T07:41:09;14.63;;;10.45;;
9773;SDS011;4926;42.670;23.316;2023-03-03T07:43:43;14.13;;;10.38;;
9773;SDS011;4926;42.670;23.316;2023-03-03T07:46:22;15.75;;;10.38;;
9773;SDS011;4926;42.670;23.316;2023-03-03T07:48:54;16.77;;;10.20;;
9773;SDS011;4926;42.670;23.316;2023-03-03T07:51:22;15.50;;;10.43;;
9773;SDS011;4926;42.670;23.316;2023-03-03T07:54:00;15.02;;;10.70;;
9773;SDS011;4926;42.670;23.316;2023-03-03T07:56:41;15.15;;;10.75;;
9773;SDS011;4926;42.670;23.316;2023-03-03T07:59:13;13.82;;;10.52;;
9773;SDS011;4926;42.670;23.316;2023-03-03T08:01:47;13.75;;;10.75;;
9773;SDS011;4926;42.670;23.316;2023-03-03T08:04:21;12.25;;;9.15;;
9773;SDS011;4926;42.670;23.316;2023-03-03T08:06:55;12.73;;;10.02;;
9773;SDS011;4926;42.670;23.316;2023-03-03T08:12:16;13.82;;;9.93;;
9773;SDS011;4926;42.670;23.316;2023-03-03T08:14:49;13.70;;;10.52;;
9773;SDS011;4926;42.670;23.316;2023-03-03T08:17:18;12.02;;;10.02;;
9773;SDS011;4926;42.670;23.316;2023-03-03T08:19:48;12.15;;;10.20;;
9773;SDS011;4926;42.670;23.316;2023-03-03T08:22:16;17.17;;;12.20;;
9773;SDS011;4926;42.670;23.316;2023-03-03T08:24:44;13.25;;;10.20;;
9773;SDS011;4926;42.670;23.316;2023-03-03T08:27:13;13.32;;;9.85;;
9773;SDS011;4926;42.670;23.316;2023-03-03T08:29:40;13.45;;;9.88;;
9773;SDS011;4926;42.670;23.316;2023-03-03T08:32:06;13.80;;;10.55;;
9773;SDS011;4926;42.670;23.316;2023-03-03T08:34:33;13.35;;;10.52;;
9773;SDS011;4926;42.670;23.316;2023-03-03T08:37:01;16.10;;;10.98;;
9773;SDS011;4926;42.670;23.316;2023-03-03T08:39:28;14.13;;;11.43;;
9773;SDS011;4926;42.670;23.316;2023-03-03T08:41:57;16.58;;;11.45;;
9773;SDS011;4926;42.670;23.316;2023-03-03T08:44:25;15.70;;;10.77;;
9773;SDS011;4926;42.670;23.316;2023-03-03T08:46:54;17.40;;;11.48;;
9773;SDS011;4926;42.670;23.316;2023-03-03T08:49:21;16.75;;;12.00;;
9773;SDS011;4926;42.670;23.316;2023-03-03T08:51:51;19.55;;;12.30;;
9773;SDS011;4926;42.670;23.316;2023-03-03T08:54:20;19.45;;;13.00;;
9773;SDS011;4926;42.670;23.316;2023-03-03T08:56:46;17.02;;;12.15;;
9773;SDS011;4926;42.670;23.316;2023-03-03T08:59:16;15.05;;;11.60;;
9773;SDS011;4926;42.670;23.316;2023-03-03T09:01:43;15.07;;;11.35;;
9773;SDS011;4926;42.670;23.316;2023-03-03T09:04:09;16.10;;;11.20;;
9773;SDS011;4926;42.670;23.316;2023-03-03T09:06:36;16.02;;;11.63;;
9773;SDS011;4926;42.670;23.316;2023-03-03T09:09:03;17.70;;;11.45;;
9773;SDS011;4926;42.670;23.316;2023-03-03T09:11:31;16.27;;;11.32;;
9773;SDS011;4926;42.670;23.316;2023-03-03T09:14:01;16.77;;;11.45;;
9773;SDS011;4926;42.670;23.316;2023-03-03T09:16:33;14.40;;;11.45;;
9773;SDS011;4926;42.670;23.316;2023-03-03T09:19:14;16.83;;;10.88;;
9773;SDS011;4926;42.670;23.316;2023-03-03T09:21:43;14.20;;;10.13;;
9773;SDS011;4926;42.670;23.316;2023-03-03T09:24:11;14.20;;;10.35;;
9773;SDS011;4926;42.670;23.316;2023-03-03T09:26:51;15.23;;;10.45;;
9773;SDS011;4926;42.670;23.316;2023-03-03T09:29:23;15.27;;;10.68;;
9773;SDS011;4926;42.670;23.316;2023-03-03T09:31:52;14.60;;;10.27;;
9773;SDS011;4926;42.670;23.316;2023-03-03T09:34:21;13.30;;;10.30;;
9773;SDS011;4926;42.670;23.316;2023-03-03T09:36:49;16.40;;;10.82;;
9773;SDS011;4926;42.670;23.316;2023-03-03T09:39:17;14.13;;;10.10;;
9773;SDS011;4926;42.670;23.316;2023-03-03T09:42:08;14.00;;;9.45;;
9773;SDS011;4926;42.670;23.316;2023-03-03T09:45:03;13.20;;;9.93;;
9773;SDS011;4926;42.670;23.316;2023-03-03T09:50:57;14.60;;;10.07;;
9773;SDS011;4926;42.670;23.316;2023-03-03T09:53:43;14.52;;;10.20;;
9773;SDS011;4926;42.670;23.316;2023-03-03T09:56:23;14.98;;;10.38;;
9773;SDS011;4926;42.670;23.316;2023-03-03T09:59:11;14.45;;;10.25;;
9773;SDS011;4926;42.670;23.316;2023-03-03T10:01:55;13.40;;;9.93;;
9773;SDS011;4926;42.670;23.316;2023-03-03T10:07:39;14.23;;;9.95;;
9773;SDS011;4926;42.670;23.316;2023-03-03T10:10:20;13.23;;;9.95;;
9773;SDS011;4926;42.670;23.316;2023-03-03T10:13:05;13.05;;;10.10;;
9773;SDS011;4926;42.670;23.316;2023-03-03T10:15:48;12.65;;;9.90;;
9773;SDS011;4926;42.670;23.316;2023-03-03T10:18:27;13.45;;;10.13;;
9773;SDS011;4926;42.670;23.316;2023-03-03T10:21:01;12.77;;;9.80;;
9773;SDS011;4926;42.670;23.316;2023-03-03T10:23:39;13.93;;;10.30;;
9773;SDS011;4926;42.670;23.316;2023-03-03T10:26:16;12.95;;;9.90;;
9773;SDS011;4926;42.670;23.316;2023-03-03T10:28:58;13.77;;;10.43;;
9773;SDS011;4926;42.670;23.316;2023-03-03T10:31:38;13.82;;;10.40;;
9773;SDS011;4926;42.670;23.316;2023-03-03T10:34:21;12.93;;;11.25;;
9773;SDS011;4926;42.670;23.316;2023-03-03T10:37:07;13.60;;;10.48;;
9773;SDS011;4926;42.670;23.316;2023-03-03T10:39:44;14.23;;;10.85;;
9773;SDS011;4926;42.670;23.316;2023-03-03T10:42:26;12.57;;;9.93;;
9773;SDS011;4926;42.670;23.316;2023-03-03T10:51:03;11.38;;;9.52;;
9773;SDS011;4926;42.670;23.316;2023-03-03T10:53:42;15.30;;;10.93;;
9773;SDS011;4926;42.670;23.316;2023-03-03T10:56:25;12.02;;;10.32;;
9773;SDS011;4926;42.670;23.316;2023-03-03T10:59:03;13.52;;;10.90;;
9773;SDS011;4926;42.670;23.316;2023-03-03T11:01:44;12.07;;;10.13;;
9773;SDS011;4926;42.670;23.316;2023-03-03T11:07:09;13.77;;;10.43;;
9773;SDS011;4926;42.670;23.316;2023-03-03T11:12:49;12.27;;;9.60;;
9773;SDS011;4926;42.670;23.316;2023-03-03T11:18:20;15.40;;;10.63;;
9773;SDS011;4926;42.670;23.316;2023-03-03T11:20:57;14.20;;;11.25;;
9773;SDS011;4926;42.670;23.316;2023-03-03T11:23:39;13.73;;;10.50;;
9773;SDS011;4926;42.670;23.316;2023-03-03T11:26:41;13.35;;;11.25;;
9773;SDS011;4926;42.670;23.316;2023-03-03T11:29:25;14.10;;;10.98;;
9773;SDS011;4926;42.670;23.316;2023-03-03T11:32:00;15.93;;;12.10;;
9773;SDS011;4926;42.670;23.316;2023-03-03T11:34:52;18.05;;;14.55;;
9773;SDS011;4926;42.670;23.316;2023-03-03T11:37:36;22.17;;;15.45;;
9773;SDS011;4926;42.670;23.316;2023-03-03T11:40:11;20.23;;;15.30;;
9773;SDS011;4926;42.670;23.316;2023-03-03T11:42:47;17.92;;;14.68;;
9773;SDS011;4926;42.670;23.316;2023-03-03T11:45:24;20.95;;;16.17;;
9773;SDS011;4926;42.670;23.316;2023-03-03T11:47:57;22.83;;;18.40;;
9773;SDS011;4926;42.670;23.316;2023-03-03T11:50:34;23.13;;;17.83;;
9773;SDS011;4926;42.670;23.316;2023-03-03T11:53:14;21.88;;;18.40;;
9773;SDS011;4926;42.670;23.316;2023-03-03T11:55:55;25.25;;;19.48;;
9773;SDS011;4926;42.670;23.316;2023-03-03T11:58:26;22.52;;;17.83;;
9773;SDS011;4926;42.670;23.316;2023-03-03T12:00:58;28.02;;;19.35;;
9773;SDS011;4926;42.670;23.316;2023-03-03T12:03:29;24.15;;;18.88;;
9773;SDS011;4926;42.670;23.316;2023-03-03T12:06:04;24.77;;;17.95;;
9773;SDS011;4926;42.670;23.316;2023-03-03T12:08:56;26.88;;;19.63;;
9773;SDS011;4926;42.670;23.316;2023-03-03T12:11:30;27.38;;;19.63;;
9773;SDS011;4926;42.670;23.316;2023-03-03T12:14:06;25.17;;;18.45;;
9773;SDS011;4926;42.670;23.316;2023-03-03T12:16:42;22.27;;;16.70;;
9773;SDS011;4926;42.670;23.316;2023-03-03T12:19:20;20.05;;;15.93;;
9773;SDS011;4926;42.670;23.316;2023-03-03T12:22:00;22.60;;;16.83;;
9773;SDS011;4926;42.670;23.316;2023-03-03T12:24:45;22.17;;;16.10;;
9773;SDS011;4926;42.670;23.316;2023-03-03T12:27:29;20.63;;;15.55;;
9773;SDS011;4926;42.670;23.316;2023-03-03T12:30:08;18.92;;;14.95;;
9773;SDS011;4926;42.670;23.316;2023-03-03T12:32:50;16.85;;;14.00;;
9773;SDS011;4926;42.670;23.316;2023-03-03T12:35:27;17.30;;;13.00;;
9773;SDS011;4926;42.670;23.316;2023-03-03T12:38:04;14.70;;;12.20;;
9773;SDS011;4926;42.670;23.316;2023-03-03T12:40:38;16.17;;;13.55;;
9773;SDS011;4926;42.670;23.316;2023-03-03T12:43:15;16.58;;;12.27;;
9773;SDS011;4926;42.670;23.316;2023-03-03T12:45:54;16.98;;;14.82;;
9773;SDS011;4926;42.670;23.316;2023-03-03T12:48:33;16.48;;;13.25;;
9773;SDS011;4926;42.670;23.316;2023-03-03T12:51:07;16.58;;;13.13;;
9773;SDS011;4926;42.670;23.316;2023-03-03T12:56:46;17.13;;;13.07;;
9773;SDS011;4926;42.670;23.316;2023-03-03T12:59:20;21.67;;;15.55;;
9773;SDS011;4926;42.670;23.316;2023-03-03T13:02:19;17.83;;;13.32;;
9773;SDS011;4926;42.670;23.316;2023-03-03T13:05:01;14.88;;;11.07;;
9773;SDS011;4926;42.670;23.316;2023-03-03T13:07:36;11.48;;;10.27;;
9773;SDS011;4926;42.670;23.316;2023-03-03T13:10:12;11.32;;;9.55;;
9773;SDS011;4926;42.670;23.316;2023-03-03T13:12:47;10.35;;;8.73;;
9773;SDS011;4926;42.670;23.316;2023-03-03T13:15:20;9.75;;;8.70;;
9773;SDS011;4926;42.670;23.316;2023-03-03T13:17:54;11.95;;;9.70;;
9773;SDS011;4926;42.670;23.316;2023-03-03T13:20:30;11.80;;;8.80;;
9773;SDS011;4926;42.670;23.316;2023-03-03T13:23:06;11.18;;;9.25;;
9773;SDS011;4926;42.670;23.316;2023-03-03T13:25:41;11.95;;;9.05;;
9773;SDS011;4926;42.670;23.316;2023-03-03T13:28:20;10.75;;;8.88;;
9773;SDS011;4926;42.670;23.316;2023-03-03T13:30:54;11.10;;;9.00;;
9773;SDS011;4926;42.670;23.316;2023-03-03T13:33:26;9.32;;;8.38;;
9773;SDS011;4926;42.670;23.316;2023-03-03T13:35:55;9.75;;;8.45;;
9773;SDS011;4926;42.670;23.316;2023-03-03T13:38:27;9.63;;;7.82;;
9773;SDS011;4926;42.670;23.316;2023-03-03T13:41:06;10.55;;;8.95;;
9773;SDS011;4926;42.670;23.316;2023-03-03T13:43:44;10.77;;;8.35;;
9773;SDS011;4926;42.670;23.316;2023-03-03T13:46:17;9.68;;;8.68;;
9773;SDS011;4926;42.670;23.316;2023-03-03T13:49:03;9.60;;;8.20;;
9773;SDS011;4926;42.670;23.316;2023-03-03T13:51:43;9.98;;;8.10;;
9773;SDS011;4926;42.670;23.316;2023-03-03T13:54:24;10.20;;;8.95;;
9773;SDS011;4926;42.670;23.316;2023-03-03T13:57:09;9.50;;;8.27;;
9773;SDS011;4926;42.670;23.316;2023-03-03T13:59:51;15.40;;;9.13;;
9773;SDS011;4926;42.670;23.316;2023-03-03T14:02:31;11.63;;;9.20;;
9773;SDS011;4926;42.670;23.316;2023-03-03T14:05:21;10.05;;;8.68;;
9773;SDS011;4926;42.670;23.316;2023-03-03T14:07:54;12.77;;;9.25;;
9773;SDS011;4926;42.670;23.316;2023-03-03T14:10:25;13.68;;;9.60;;
9773;SDS011;4926;42.670;23.316;2023-03-03T14:12:59;11.13;;;9.45;;
9773;SDS011;4926;42.670;23.316;2023-03-03T14:15:32;12.40;;;9.45;;
9773;SDS011;4926;42.670;23.316;2023-03-03T14:18:04;10.13;;;8.90;;
9773;SDS011;4926;42.670;23.316;2023-03-03T14:20:43;10.93;;;9.55;;
9773;SDS011;4926;42.670;23.316;2023-03-03T14:23:13;10.80;;;8.82;;
9773;SDS011;4926;42.670;23.316;2023-03-03T14:25:53;9.98;;;8.93;;
9773;SDS011;4926;42.670;23.316;2023-03-03T14:28:23;11.35;;;8.70;;
9773;SDS011;4926;42.670;23.316;2023-03-03T14:30:53;11.80;;;8.90;;
9773;SDS011;4926;42.670;23.316;2023-03-03T14:33:35;10.05;;;7.68;;
9773;SDS011;4926;42.670;23.316;2023-03-03T14:36:11;9.40;;;8.32;;
9773;SDS011;4926;42.670;23.316;2023-03-03T14:38:49;11.43;;;8.63;;
9773;SDS011;4926;42.670;23.316;2023-03-03T14:41:17;10.73;;;8.55;;
9773;SDS011;4926;42.670;23.316;2023-03-03T14:43:54;12.00;;;8.68;;
9773;SDS011;4926;42.670;23.316;2023-03-03T14:46:32;10.85;;;8.13;;
9773;SDS011;4926;42.670;23.316;2023-03-03T14:49:04;10.57;;;8.18;;
9773;SDS011;4926;42.670;23.316;2023-03-03T14:51:37;7.35;;;6.45;;
9773;SDS011;4926;42.670;23.316;2023-03-03T14:54:13;7.78;;;6.75;;
9773;SDS011;4926;42.670;23.316;2023-03-03T14:56:57;7.75;;;6.72;;
9773;SDS011;4926;42.670;23.316;2023-03-03T14:59:25;8.75;;;6.75;;
9773;SDS011;4926;42.670;23.316;2023-03-03T15:02:07;8.40;;;7.22;;
9773;SDS011;4926;42.670;23.316;2023-03-03T15:05:07;7.47;;;6.43;;
9773;SDS011;4926;42.670;23.316;2023-03-03T15:07:41;6.80;;;6.10;;
9773;SDS011;4926;42.670;23.316;2023-03-03T15:10:08;9.23;;;8.05;;
9773;SDS011;4926;42.670;23.316;2023-03-03T15:12:37;9.90;;;7.90;;
9773;SDS011;4926;42.670;23.316;2023-03-03T15:15:16;9.48;;;7.82;;
9773;SDS011;4926;42.670;23.316;2023-03-03T15:17:53;10.10;;;8.10;;
9773;SDS011;4926;42.670;23.316;2023-03-03T15:20:28;8.70;;;7.80;;
9773;SDS011;4926;42.670;23.316;2023-03-03T15:23:04;9.07;;;8.10;;
9773;SDS011;4926;42.670;23.316;2023-03-03T15:25:41;11.55;;;10.15;;
9773;SDS011;4926;42.670;23.316;2023-03-03T15:28:24;13.05;;;11.40;;
9773;SDS011;4926;42.670;23.316;2023-03-03T15:31:01;9.00;;;8.10;;
9773;SDS011;4926;42.670;23.316;2023-03-03T15:33:39;9.43;;;8.45;;
9773;SDS011;4926;42.670;23.316;2023-03-03T15:36:12;11.98;;;8.98;;
9773;SDS011;4926;42.670;23.316;2023-03-03T15:38:52;10.57;;;8.45;;
9773;SDS011;4926;42.670;23.316;2023-03-03T15:41:38;9.80;;;8.25;;
9773;SDS011;4926;42.670;23.316;2023-03-03T15:44:11;10.48;;;8.73;;
9773;SDS011;4926;42.670;23.316;2023-03-03T15:46:45;9.65;;;8.30;;